createdAt,value
2023-06-08T00:00:41.045Z,19.52
2023-06-08T00:06:58.930Z,19.41
2023-06-08T00:09:25.352Z,19.37
2023-06-08T00:11:54.005Z,19.42
2023-06-08T00:14:20.663Z,19.44
2023-06-08T00:16:49.145Z,19.38
2023-06-08T00:19:16.403Z,19.36
2023-06-08T00:21:44.095Z,19.34
2023-06-08T00:24:11.175Z,19.35
2023-06-08T00:26:37.903Z,19.34
2023-06-08T00:29:04.434Z,19.33
2023-06-08T00:31:31.005Z,19.34
2023-06-08T00:33:57.420Z,19.26
2023-06-08T00:36:23.801Z,19.21
2023-06-08T00:38:50.398Z,19.28
2023-06-08T00:41:16.798Z,19.12
2023-06-08T00:43:46.654Z,19.09
2023-06-08T00:46:16.005Z,19.01
2023-06-08T00:48:43.061Z,19.06
2023-06-08T00:51:10.909Z,18.97
2023-06-08T00:53:38.173Z,19.01
2023-06-08T00:56:06.979Z,18.95
2023-06-08T00:58:34.602Z,18.85
2023-06-08T01:01:02.378Z,18.77
2023-06-08T01:03:34.283Z,18.76
2023-06-08T01:06:09.064Z,18.77
2023-06-08T01:08:43.140Z,18.80
2023-06-08T01:11:19.745Z,18.68
2023-06-08T01:14:06.236Z,18.63
2023-06-08T01:16:38.698Z,18.61
2023-06-08T01:19:09.773Z,18.53
2023-06-08T01:21:48.762Z,18.56
2023-06-08T01:24:21.108Z,18.48
2023-06-08T01:26:51.408Z,18.43
2023-06-08T01:29:26.311Z,18.43
2023-06-08T01:31:52.781Z,18.37
2023-06-08T01:34:20.412Z,18.40
2023-06-08T01:36:58.956Z,18.29
2023-06-08T01:39:57.966Z,18.31
2023-06-08T01:42:27.038Z,18.26
2023-06-08T01:44:59.835Z,18.18
2023-06-08T01:47:36.724Z,18.15
2023-06-08T01:50:07.004Z,18.14
2023-06-08T01:52:33.866Z,18.06
2023-06-08T01:55:00.659Z,18.03
2023-06-08T01:57:27.134Z,17.98
2023-06-08T01:59:53.597Z,17.97
2023-06-08T02:02:20.004Z,17.98
2023-06-08T02:04:46.481Z,17.97
2023-06-08T02:07:12.847Z,17.95
2023-06-08T02:09:39.223Z,17.97
2023-06-08T02:12:09.197Z,17.88
2023-06-08T02:14:36.497Z,17.84
2023-06-08T02:17:04.498Z,17.89
2023-06-08T02:19:34.360Z,17.87
2023-06-08T02:22:00.791Z,17.83
2023-06-08T02:24:27.618Z,17.72
2023-06-08T02:26:54.026Z,17.70
2023-06-08T02:29:20.431Z,17.69
2023-06-08T02:31:46.886Z,17.63
2023-06-08T02:34:13.332Z,17.68
2023-06-08T02:36:40.961Z,17.58
2023-06-08T02:39:07.354Z,17.66
2023-06-08T02:41:33.680Z,17.60
2023-06-08T02:44:00.024Z,17.62
2023-06-08T02:46:26.522Z,17.54
2023-06-08T02:48:52.903Z,17.51
2023-06-08T02:51:20.374Z,17.51
2023-06-08T02:53:46.903Z,17.45
2023-06-08T02:56:13.849Z,17.45
2023-06-08T02:58:42.735Z,17.39
2023-06-08T03:01:21.359Z,17.41
2023-06-08T03:03:50.336Z,17.42
2023-06-08T03:06:19.591Z,17.38
2023-06-08T03:08:47.929Z,17.32
2023-06-08T03:11:15.501Z,17.28
2023-06-08T03:13:41.835Z,17.25
2023-06-08T03:16:08.378Z,17.28
2023-06-08T03:18:36.758Z,17.25
2023-06-08T03:21:04.078Z,17.20
2023-06-08T03:23:31.566Z,17.23
2023-06-08T03:25:58.101Z,17.09
2023-06-08T03:28:24.649Z,17.10
2023-06-08T03:30:51.686Z,17.10
2023-06-08T03:33:18.068Z,17.01
2023-06-08T03:35:44.495Z,17.08
2023-06-08T03:38:10.962Z,17.10
2023-06-08T03:40:37.355Z,17.04
2023-06-08T03:43:03.773Z,16.97
2023-06-08T03:45:30.253Z,16.91
2023-06-08T03:47:56.690Z,16.99
2023-06-08T03:50:23.462Z,17.00
2023-06-08T03:52:50.259Z,16.97
2023-06-08T03:55:18.008Z,16.92
2023-06-08T03:57:44.438Z,16.91
2023-06-08T04:00:12.685Z,16.88
2023-06-08T04:02:39.517Z,16.94
2023-06-08T04:05:07.704Z,16.92
2023-06-08T04:07:35.804Z,16.89
2023-06-08T04:10:02.742Z,16.94
2023-06-08T04:12:29.100Z,16.88
2023-06-08T04:14:55.425Z,16.91
2023-06-08T04:17:21.835Z,16.82
2023-06-08T04:19:48.225Z,16.92
2023-06-08T04:22:14.881Z,16.94
2023-06-08T04:24:41.320Z,16.95
2023-06-08T04:27:08.496Z,17.02
2023-06-08T04:29:35.080Z,17.05
2023-06-08T04:32:01.893Z,17.09
2023-06-08T04:34:28.775Z,17.10
2023-06-08T04:36:55.257Z,17.12
2023-06-08T04:39:22.034Z,17.16
2023-06-08T04:41:48.748Z,17.17
2023-06-08T04:44:19.725Z,17.10
2023-06-08T04:46:46.223Z,17.14
2023-06-08T04:49:13.987Z,17.12
2023-06-08T04:51:47.164Z,17.16
2023-06-08T04:54:14.874Z,17.22
2023-06-08T04:56:42.182Z,17.29
2023-06-08T04:59:11.975Z,17.32
2023-06-08T05:01:38.425Z,17.37
2023-06-08T05:04:08.585Z,17.43
2023-06-08T05:06:36.234Z,17.46
2023-06-08T05:09:02.752Z,17.56
2023-06-08T05:11:29.202Z,17.67
2023-06-08T05:13:55.700Z,17.75
2023-06-08T05:16:23.832Z,17.84
2023-06-08T05:18:52.317Z,17.90
2023-06-08T05:21:18.704Z,18.02
2023-06-08T05:23:45.107Z,18.10
2023-06-08T05:26:11.590Z,18.14
2023-06-08T05:28:38.202Z,18.17
2023-06-08T05:31:04.675Z,18.27
2023-06-08T05:33:31.137Z,18.38
2023-06-08T05:36:05.222Z,18.48
2023-06-08T05:38:32.185Z,18.56
2023-06-08T05:40:58.576Z,18.69
2023-06-08T05:43:25.051Z,18.77
2023-06-08T05:45:51.477Z,18.83
2023-06-08T05:48:17.945Z,18.73
2023-06-08T05:50:44.542Z,18.73
2023-06-08T05:53:11.153Z,18.69
2023-06-08T05:55:37.712Z,18.76
2023-06-08T05:58:04.108Z,18.88
2023-06-08T06:00:30.450Z,18.92
2023-06-08T06:02:56.980Z,19.04
2023-06-08T06:05:23.570Z,19.05
2023-06-08T06:07:50.000Z,19.13
2023-06-08T06:10:16.487Z,19.01
2023-06-08T06:12:43.022Z,19.08
2023-06-08T06:15:09.896Z,19.19
2023-06-08T06:17:36.515Z,19.26
2023-06-08T06:20:06.428Z,19.34
2023-06-08T06:22:33.117Z,19.36
2023-06-08T06:24:59.533Z,19.53
2023-06-08T06:27:26.124Z,19.67
2023-06-08T06:29:52.664Z,19.65
2023-06-08T06:32:19.469Z,19.58
2023-06-08T06:34:46.035Z,19.81
2023-06-08T06:37:12.382Z,19.95
2023-06-08T06:39:38.818Z,20.13
2023-06-08T06:42:06.216Z,20.31
2023-06-08T06:44:32.601Z,20.49
2023-06-08T06:46:59.022Z,20.44
2023-06-08T06:49:25.356Z,20.50
2023-06-08T06:51:51.744Z,20.43
2023-06-08T06:54:18.243Z,20.43
2023-06-08T06:56:45.872Z,20.69
2023-06-08T06:59:12.273Z,20.98
2023-06-08T07:01:38.956Z,21.06
2023-06-08T07:04:09.839Z,21.23
2023-06-08T07:06:36.579Z,21.29
2023-06-08T07:09:05.096Z,21.27
2023-06-08T07:11:31.554Z,21.37
2023-06-08T07:13:58.324Z,21.38
2023-06-08T07:16:27.701Z,21.49
2023-06-08T07:18:54.600Z,21.61
2023-06-08T07:21:22.847Z,21.70
2023-06-08T07:24:21.707Z,21.72
2023-06-08T07:26:38.026Z,21.70
2023-06-08T07:29:04.460Z,21.72
2023-06-08T07:31:31.100Z,21.83
2023-06-08T07:34:00.786Z,21.99
2023-06-08T07:36:29.556Z,22.28
2023-06-08T07:38:57.375Z,22.30
2023-06-08T07:41:25.756Z,22.31
2023-06-08T07:43:52.118Z,22.41
2023-06-08T07:46:18.531Z,22.53
2023-06-08T07:48:44.922Z,22.62
2023-06-08T07:51:11.336Z,22.69
2023-06-08T07:53:38.812Z,22.56
2023-06-08T07:56:06.467Z,22.75
2023-06-08T07:58:33.799Z,22.73
2023-06-08T08:01:01.495Z,22.91
2023-06-08T08:03:37.367Z,22.76
2023-06-08T08:06:04.092Z,23.16
2023-06-08T08:08:30.461Z,23.28
2023-06-08T08:10:57.179Z,23.46
2023-06-08T08:13:23.651Z,23.27
2023-06-08T08:15:50.175Z,23.42
2023-06-08T08:18:17.029Z,23.67
2023-06-08T08:20:43.725Z,23.72
2023-06-08T08:23:10.130Z,23.78
2023-06-08T08:25:36.628Z,24.06
2023-06-08T08:28:03.309Z,24.24
2023-06-08T08:30:29.890Z,24.72
2023-06-08T08:32:56.543Z,24.25
2023-06-08T08:35:25.909Z,24.71
2023-06-08T08:37:52.351Z,24.72
2023-06-08T08:40:19.525Z,24.77
2023-06-08T08:42:54.185Z,24.54
2023-06-08T08:45:28.825Z,24.83
2023-06-08T08:47:56.697Z,25.01
2023-06-08T08:50:23.341Z,25.25
2023-06-08T08:52:54.170Z,25.40
2023-06-08T08:58:01.748Z,25.28
2023-06-08T09:00:29.134Z,25.28
2023-06-08T09:02:56.212Z,25.28
2023-06-08T09:05:22.853Z,25.39
2023-06-08T09:07:49.394Z,25.47
2023-06-08T09:10:26.578Z,25.79
2023-06-08T09:12:55.688Z,25.86
2023-06-08T09:15:37.897Z,26.08
2023-06-08T09:18:18.522Z,26.07
2023-06-08T09:20:46.487Z,26.27
2023-06-08T09:26:57.493Z,26.00
2023-06-08T09:29:42.913Z,26.17
2023-06-08T09:32:11.092Z,26.51
2023-06-08T09:34:50.598Z,26.61
2023-06-08T09:37:17.249Z,26.83
2023-06-08T09:39:45.743Z,26.97
2023-06-08T09:42:12.908Z,27.03
2023-06-08T09:44:39.753Z,27.27
2023-06-08T09:47:28.893Z,27.35
2023-06-08T09:49:56.726Z,27.01
2023-06-08T09:52:25.100Z,27.18
2023-06-08T09:54:52.599Z,27.41
2023-06-08T09:57:23.073Z,27.36
2023-06-08T10:00:15.267Z,27.65
2023-06-08T10:03:37.605Z,27.45
2023-06-08T10:06:06.990Z,27.51
2023-06-08T10:08:35.389Z,27.93
2023-06-08T10:11:02.914Z,27.60
2023-06-08T10:13:30.925Z,27.97
2023-06-08T10:15:58.902Z,28.24
2023-06-08T10:18:26.872Z,28.25
2023-06-08T10:20:53.844Z,28.26
2023-06-08T10:23:21.435Z,28.58
2023-06-08T10:25:50.519Z,28.01
2023-06-08T10:28:21.428Z,28.22
2023-06-08T10:30:48.108Z,28.30
2023-06-08T10:33:23.433Z,28.15
2023-06-08T10:36:06.578Z,28.46
2023-06-08T10:38:55.295Z,28.38
2023-06-08T10:41:44.426Z,28.72
2023-06-08T10:44:32.494Z,28.68
2023-06-08T10:47:01.284Z,29.28
2023-06-08T10:49:35.067Z,29.05
2023-06-08T10:52:03.618Z,28.98
2023-06-08T10:54:31.918Z,28.85
2023-06-08T10:57:15.584Z,29.10
2023-06-08T10:59:42.896Z,29.45
2023-06-08T11:02:09.388Z,29.04
2023-06-08T11:04:39.180Z,29.05
2023-06-08T11:07:12.347Z,29.44
2023-06-08T11:09:39.403Z,29.48
2023-06-08T11:12:07.087Z,29.20
2023-06-08T11:14:33.491Z,29.46
2023-06-08T11:16:59.978Z,29.48
2023-06-08T11:19:30.831Z,30.12
2023-06-08T11:21:57.385Z,29.84
2023-06-08T11:24:28.420Z,29.45
2023-06-08T11:27:06.315Z,29.32
2023-06-08T11:29:33.833Z,29.58
2023-06-08T11:32:11.977Z,29.61
2023-06-08T11:34:39.102Z,29.92
2023-06-08T11:37:05.637Z,30.15
2023-06-08T11:39:34.370Z,30.45
2023-06-08T11:42:01.349Z,30.38
2023-06-08T11:44:27.875Z,30.45
2023-06-08T11:46:54.508Z,30.33
2023-06-08T11:49:21.193Z,29.86
2023-06-08T11:51:50.421Z,29.74
2023-06-08T11:54:17.658Z,29.43
2023-06-08T11:56:47.539Z,29.81
2023-06-08T11:59:14.752Z,29.99
2023-06-08T12:01:58.788Z,29.91
2023-06-08T12:04:34.907Z,30.30
2023-06-08T12:07:11.118Z,30.59
2023-06-08T12:09:38.513Z,30.84
2023-06-08T12:12:12.150Z,30.56
2023-06-08T12:14:48.607Z,30.13
2023-06-08T12:17:18.566Z,29.79
2023-06-08T12:19:48.298Z,30.45
2023-06-08T12:22:14.940Z,30.80
2023-06-08T12:24:41.490Z,30.78
2023-06-08T12:27:08.297Z,30.55
2023-06-08T12:29:38.127Z,30.87
2023-06-08T12:32:05.660Z,30.91
2023-06-08T12:34:33.785Z,30.32
2023-06-08T12:37:00.356Z,30.37
2023-06-08T12:39:27.055Z,30.43
2023-06-08T12:41:53.469Z,30.01
2023-06-08T12:44:19.869Z,29.84
2023-06-08T12:46:46.302Z,29.54
2023-06-08T12:49:12.707Z,29.13
2023-06-08T12:51:39.168Z,28.68
2023-06-08T12:54:05.634Z,28.20
2023-06-08T12:56:32.071Z,26.92
2023-06-08T12:58:58.417Z,26.31
2023-06-08T13:01:24.920Z,25.24
2023-06-08T13:03:53.948Z,24.84
2023-06-08T13:06:20.508Z,24.62
2023-06-08T13:08:46.896Z,24.67
2023-06-08T13:11:13.673Z,24.55
2023-06-08T13:13:40.090Z,24.58
2023-06-08T13:16:06.822Z,24.14
2023-06-08T13:18:33.884Z,23.70
2023-06-08T13:21:00.360Z,23.95
2023-06-08T13:23:28.179Z,23.78
2023-06-08T13:25:54.633Z,23.67
2023-06-08T13:28:20.985Z,23.59
2023-06-08T13:30:47.722Z,23.58
2023-06-08T13:33:14.270Z,23.38
2023-06-08T13:35:42.232Z,23.36
2023-06-08T13:38:08.817Z,23.66
2023-06-08T13:40:36.141Z,23.87
2023-06-08T13:43:02.631Z,23.99
2023-06-08T13:45:32.271Z,24.14
2023-06-08T13:47:59.198Z,24.26
2023-06-08T13:50:27.998Z,24.35
2023-06-08T13:52:58.015Z,24.52
2023-06-08T13:55:25.626Z,24.59
2023-06-08T13:57:52.097Z,24.66
2023-06-08T14:00:18.716Z,24.69
2023-06-08T14:02:48.478Z,24.74
2023-06-08T14:05:19.517Z,24.94
2023-06-08T14:07:46.544Z,25.14
2023-06-08T14:10:13.002Z,25.47
2023-06-08T14:12:40.151Z,25.54
2023-06-08T14:15:09.936Z,25.65
2023-06-08T14:17:38.849Z,25.95
2023-06-08T14:20:06.374Z,26.32
2023-06-08T14:22:32.898Z,26.54
2023-06-08T14:24:59.312Z,26.85
2023-06-08T14:27:27.854Z,27.07
2023-06-08T14:29:54.262Z,27.07
2023-06-08T14:32:20.682Z,27.41
2023-06-08T14:34:47.387Z,27.69
2023-06-08T14:37:13.787Z,27.92
2023-06-08T14:39:40.206Z,28.05
2023-06-08T14:42:07.245Z,28.16
2023-06-08T14:44:33.857Z,28.34
2023-06-08T14:47:00.363Z,28.38
2023-06-08T14:49:28.987Z,28.69
2023-06-08T14:51:55.792Z,28.87
2023-06-08T14:54:22.707Z,28.92
2023-06-08T14:56:49.467Z,29.08
2023-06-08T14:59:15.822Z,29.02
2023-06-08T15:01:42.396Z,29.14
2023-06-08T15:04:08.948Z,29.32
2023-06-08T15:06:36.539Z,29.27
2023-06-08T15:09:03.388Z,29.29
2023-06-08T15:11:29.843Z,29.40
2023-06-08T15:13:56.257Z,29.21
2023-06-08T15:16:22.627Z,29.30
2023-06-08T15:18:49.123Z,28.98
2023-06-08T15:21:15.507Z,28.78
2023-06-08T15:23:43.150Z,29.02
2023-06-08T15:26:11.612Z,28.49
2023-06-08T15:28:38.026Z,28.40
2023-06-08T15:31:05.715Z,28.38
2023-06-08T15:33:32.181Z,28.01
2023-06-08T15:35:58.588Z,27.10
2023-06-08T15:38:25.104Z,26.46
2023-06-08T15:40:51.597Z,26.29
2023-06-08T15:43:18.249Z,25.81
2023-06-08T15:45:44.633Z,25.27
2023-06-08T15:48:11.104Z,24.71
2023-06-08T15:50:37.608Z,24.63
2023-06-08T15:53:03.979Z,24.41
2023-06-08T15:55:30.361Z,24.36
2023-06-08T15:57:56.837Z,24.15
2023-06-08T16:00:23.239Z,23.36
2023-06-08T16:02:49.821Z,23.04
2023-06-08T16:05:16.316Z,23.01
2023-06-08T16:07:42.677Z,22.94
2023-06-08T16:10:09.862Z,22.89
2023-06-08T16:12:36.665Z,22.76
2023-06-08T16:15:05.184Z,22.83
2023-06-08T16:17:31.646Z,22.93
2023-06-08T16:19:58.163Z,22.73
2023-06-08T16:22:24.626Z,22.75
2023-06-08T16:24:51.147Z,22.85
2023-06-08T16:27:17.819Z,22.65
2023-06-08T16:29:47.016Z,22.65
2023-06-08T16:32:14.556Z,22.58
2023-06-08T16:34:41.831Z,22.55
2023-06-08T16:37:08.221Z,22.37
2023-06-08T16:39:34.758Z,22.55
2023-06-08T16:42:01.131Z,22.43
2023-06-08T16:44:27.548Z,22.44
2023-06-08T16:46:55.209Z,22.30
2023-06-08T16:49:21.791Z,22.28
2023-06-08T16:51:48.160Z,22.19
2023-06-08T16:54:14.571Z,22.07
2023-06-08T16:56:41.199Z,22.12
2023-06-08T16:59:07.545Z,22.25
2023-06-08T17:01:34.034Z,21.94
2023-06-08T17:04:00.896Z,21.75
2023-06-08T17:06:27.254Z,21.04
2023-06-08T17:08:53.637Z,20.73
2023-06-08T17:11:21.521Z,20.28
2023-06-08T17:13:47.864Z,19.78
2023-06-08T17:16:14.300Z,19.58
2023-06-08T17:18:40.738Z,19.55
2023-06-08T17:21:08.349Z,19.50
2023-06-08T17:23:35.484Z,19.47
2023-06-08T17:26:01.977Z,19.49
2023-06-08T17:28:28.533Z,19.46
2023-06-08T17:30:55.085Z,19.37
2023-06-08T17:33:21.965Z,19.45
2023-06-08T17:35:48.378Z,19.41
2023-06-08T17:38:14.865Z,19.37
2023-06-08T17:40:41.304Z,19.33
2023-06-08T17:43:07.677Z,19.42
2023-06-08T17:45:34.074Z,19.50
2023-06-08T17:48:00.708Z,19.64
2023-06-08T17:50:28.201Z,19.74
2023-06-08T17:53:02.074Z,19.91
2023-06-08T17:55:28.902Z,20.08
2023-06-08T17:57:57.365Z,19.96
2023-06-08T18:00:24.390Z,19.71
2023-06-08T18:02:51.314Z,19.66
2023-06-08T18:05:18.632Z,19.67
2023-06-08T18:07:45.025Z,19.66
2023-06-08T18:10:11.641Z,19.60
2023-06-08T18:12:38.047Z,19.44
2023-06-08T18:15:06.239Z,19.30
2023-06-08T18:17:33.611Z,19.41
2023-06-08T18:20:02.186Z,19.35
2023-06-08T18:22:30.855Z,19.29
2023-06-08T18:24:57.440Z,19.40
2023-06-08T18:27:24.202Z,19.49
2023-06-08T18:29:50.624Z,19.38
2023-06-08T18:32:17.115Z,19.48
2023-06-08T18:34:43.539Z,19.60
2023-06-08T18:37:09.949Z,19.69
2023-06-08T18:39:48.221Z,19.73
2023-06-08T18:42:23.135Z,19.69
2023-06-08T18:44:49.904Z,19.72
2023-06-08T18:47:16.590Z,19.73
2023-06-08T18:49:44.953Z,19.64
2023-06-08T18:52:11.848Z,19.62
2023-06-08T18:54:38.932Z,19.51
2023-06-08T18:57:05.792Z,19.52
2023-06-08T18:59:32.219Z,19.42
2023-06-08T19:01:58.564Z,19.38
2023-06-08T19:04:24.981Z,19.33
2023-06-08T19:06:51.686Z,19.21
2023-06-08T19:09:20.260Z,19.15
2023-06-08T19:11:47.647Z,19.15
2023-06-08T19:14:15.180Z,19.12
2023-06-08T19:16:41.744Z,19.05
2023-06-08T19:19:09.237Z,19.03
2023-06-08T19:21:36.831Z,19.03
2023-06-08T19:24:07.401Z,19.07
2023-06-08T19:26:34.786Z,19.07
2023-06-08T19:29:01.708Z,19.06
2023-06-08T19:31:29.076Z,18.98
2023-06-08T19:33:56.488Z,18.93
2023-06-08T19:36:24.024Z,18.83
2023-06-08T19:38:52.262Z,18.78
2023-06-08T19:41:18.871Z,18.77
2023-06-08T19:43:45.992Z,18.75
2023-06-08T19:46:12.504Z,18.60
2023-06-08T19:48:39.414Z,18.49
2023-06-08T19:51:06.003Z,18.61
2023-06-08T19:53:32.570Z,18.57
2023-06-08T19:55:59.080Z,18.49
2023-06-08T19:58:25.718Z,18.47
2023-06-08T20:00:52.435Z,18.38
2023-06-08T20:03:19.231Z,18.39
2023-06-08T20:05:45.639Z,18.19
2023-06-08T20:08:12.129Z,18.16
2023-06-08T20:10:38.543Z,18.13
2023-06-08T20:13:04.967Z,17.96
2023-06-08T20:15:34.713Z,18.02
2023-06-08T20:18:02.311Z,18.06
2023-06-08T20:20:28.873Z,18.01
2023-06-08T20:22:55.335Z,18.00
2023-06-08T20:25:23.244Z,18.07
2023-06-08T20:27:49.907Z,17.99
2023-06-08T20:30:16.874Z,17.86
2023-06-08T20:32:43.514Z,17.85
2023-06-08T20:35:10.245Z,17.86
2023-06-08T20:37:36.910Z,17.94
2023-06-08T20:40:04.018Z,18.01
2023-06-08T20:42:30.514Z,18.03
2023-06-08T20:44:57.394Z,18.08
2023-06-08T20:47:23.824Z,18.09
2023-06-08T20:49:50.456Z,18.11
2023-06-08T20:52:16.929Z,18.07
2023-06-08T20:54:43.339Z,18.01
2023-06-08T20:57:09.842Z,17.99
2023-06-08T20:59:37.228Z,17.98
2023-06-08T21:02:03.724Z,18.00
2023-06-08T21:04:33.024Z,18.03
2023-06-08T21:07:00.746Z,18.06
2023-06-08T21:09:27.415Z,18.03
2023-06-08T21:11:54.800Z,18.07
2023-06-08T21:14:24.704Z,18.06
2023-06-08T21:16:52.448Z,18.06
2023-06-08T21:19:18.846Z,18.03
2023-06-08T21:21:45.428Z,17.98
2023-06-08T21:24:11.856Z,18.04
2023-06-08T21:26:38.321Z,18.05
2023-06-08T21:29:07.821Z,17.98
2023-06-08T21:31:34.275Z,18.00
2023-06-08T21:34:00.691Z,18.04
2023-06-08T21:36:27.018Z,18.03
2023-06-08T21:38:53.957Z,18.01
2023-06-08T21:41:20.427Z,17.96
2023-06-08T21:43:46.846Z,17.92
2023-06-08T21:46:13.229Z,17.89
2023-06-08T21:48:39.818Z,17.86
2023-06-08T21:51:06.947Z,17.79
2023-06-08T21:53:33.352Z,17.72
2023-06-08T21:56:00.149Z,17.69
2023-06-08T21:58:26.563Z,17.55
2023-06-08T22:00:53.488Z,17.40
2023-06-08T22:03:20.139Z,17.32
2023-06-08T22:05:46.559Z,17.26
2023-06-08T22:08:12.988Z,17.28
2023-06-08T22:10:39.812Z,17.23
2023-06-08T22:13:07.348Z,17.09
2023-06-08T22:15:33.838Z,17.02
2023-06-08T22:18:02.186Z,16.98
2023-06-08T22:20:34.700Z,16.96
2023-06-08T22:23:01.717Z,16.85
2023-06-08T22:25:28.169Z,16.90
2023-06-08T22:27:55.231Z,16.97
2023-06-08T22:30:21.620Z,17.00
2023-06-08T22:32:48.104Z,16.93
2023-06-08T22:35:14.671Z,16.87
2023-06-08T22:37:41.469Z,16.79
2023-06-08T22:40:09.453Z,16.67
2023-06-08T22:42:35.903Z,16.61
2023-06-08T22:45:02.621Z,16.51
2023-06-08T22:47:31.260Z,16.46
2023-06-08T22:49:59.520Z,16.44
2023-06-08T22:52:29.294Z,16.33
2023-06-08T22:54:56.074Z,16.31
2023-06-08T22:57:22.658Z,16.34
2023-06-08T22:59:49.153Z,16.22
2023-06-08T23:02:15.941Z,16.22
2023-06-08T23:04:47.519Z,16.22
2023-06-08T23:07:17.843Z,16.25
2023-06-08T23:09:49.485Z,16.17
2023-06-08T23:12:17.216Z,16.10
2023-06-08T23:14:49.428Z,16.06
2023-06-08T23:17:19.433Z,16.11
2023-06-08T23:19:49.474Z,16.10
2023-06-08T23:22:23.247Z,16.05
2023-06-08T23:24:51.539Z,15.99
2023-06-08T23:27:18.170Z,15.95
2023-06-08T23:29:48.590Z,15.94
2023-06-08T23:32:19.424Z,15.93
2023-06-08T23:34:48.073Z,15.92
2023-06-08T23:37:17.006Z,15.91
2023-06-08T23:39:44.836Z,15.85
2023-06-08T23:42:11.449Z,15.92
2023-06-08T23:44:38.575Z,15.82
2023-06-08T23:47:08.229Z,15.81
2023-06-08T23:49:34.921Z,15.82
2023-06-08T23:52:01.370Z,15.70
2023-06-08T23:54:27.854Z,15.60
2023-06-08T23:56:54.231Z,15.67
2023-06-08T23:59:20.658Z,15.65
